Troy, Kansas
Current Conditions -  °F | °C
As of 2:53 PM on Friday 19 Dec 2014 (Local Time) from KSTJ Reporting Station
Overcast Overcast  
Wind Chill: 26°   Ceiling: 900
Heat Index: 32°   Visibility: 9mi
Dew Point: 29°   Wind: 6mph
Humidity: 88%   Direction: 220°SW
Pressure: 30.22"   Gusts: NA
Location:  39.78°N, 95.09°W
Report Text: KSTJ 192053Z 22005KT 9SM OVC009 00/M02 A3022 RMK AO2 SLP243 T00001017 56021
Loading
Personal Weather Stations






























Interactive Weather Map New forecast layout! Learn more

10-Day Weather Forecast

Advertisements
Track Severe Weather on mobile